Time;durP1;ratioP1;P1;durP2;ratioP2;P2;SDS_P1;SDS_P2;PMS_P1;PMS_P2;Temp;Humidity;BMP_temperature;BMP_pressure;BME280_temperature;BME280_humidity;BME280_pressure;Samples;Min_cycle;Max_cycle;Signal;HPM_P1;HPM_P2
2022/12/04 00:01:21;;;;;;;43.97;16.40;;;-0.40;99.90;;;;;;5099190;28;20119;-67
2022/12/04 00:03:56;;;;;;;48.65;19.13;;;-0.40;99.90;;;;;;5099042;28;20045;-67
2022/12/04 00:06:25;;;;;;;49.10;17.85;;;-0.40;99.90;;;;;;5099018;28;20023;-67
2022/12/04 00:08:54;;;;;;;43.70;15.70;;;-0.40;99.90;;;;;;5098710;28;20021;-67
2022/12/04 00:11:27;;;;;;;44.95;16.00;;;-0.40;99.90;;;;;;5098857;28;20028;-67
2022/12/04 00:13:55;;;;;;;45.95;18.20;;;-0.40;99.90;;;;;;5098862;28;20106;-67
2022/12/04 00:16:28;;;;;;;43.22;17.13;;;-0.40;99.90;;;;;;5098786;28;20158;-67
2022/12/04 00:18:56;;;;;;;46.13;16.95;;;-0.40;99.90;;;;;;5098728;28;20039;-67
2022/12/04 00:21:24;;;;;;;45.38;16.90;;;-0.40;99.90;;;;;;5099074;28;20020;-67
2022/12/04 00:23:53;;;;;;;47.45;15.95;;;-0.40;99.90;;;;;;5098635;28;20462;-67
2022/12/04 00:26:23;;;;;;;48.25;16.35;;;-0.40;99.90;;;;;;5099166;28;20027;-67
2022/12/04 00:28:50;;;;;;;44.90;17.05;;;-0.40;99.90;;;;;;5080637;28;20020;-67
2022/12/04 00:31:25;;;;;;;48.47;17.90;;;-0.40;99.90;;;;;;5080501;28;20359;-67
2022/12/04 00:33:53;;;;;;;40.22;16.33;;;-0.40;99.90;;;;;;5098500;28;20066;-67
2022/12/04 00:36:23;;;;;;;49.70;16.45;;;-0.40;99.90;;;;;;5098296;28;20020;-67
2022/12/04 00:38:51;;;;;;;40.22;15.60;;;-0.40;99.90;;;;;;5098523;28;20324;-67
2022/12/04 00:41:22;;;;;;;49.90;18.25;;;-0.40;99.90;;;;;;5098523;28;20036;-67
2022/12/04 00:43:50;;;;;;;44.53;14.68;;;-0.40;99.90;;;;;;5098546;28;20039;-67
2022/12/04 00:46:17;;;;;;;42.35;17.10;;;-0.40;99.90;;;;;;5098780;28;20409;-67
2022/12/04 00:48:45;;;;;;;44.70;17.05;;;-0.40;99.90;;;;;;5099381;28;20401;-67
2022/12/04 00:51:19;;;;;;;44.03;18.35;;;-0.40;99.90;;;;;;5098532;28;20032;-67
2022/12/04 00:53:47;;;;;;;50.35;16.50;;;-0.40;99.90;;;;;;5098135;28;20387;-67
2022/12/04 00:56:18;;;;;;;42.83;16.63;;;-0.40;99.90;;;;;;5098544;28;20026;-67
2022/12/04 00:58:46;;;;;;;42.15;15.00;;;-0.40;99.90;;;;;;5098702;28;20020;-67
2022/12/04 01:01:18;;;;;;;40.88;16.95;;;-0.40;99.90;;;;;;5098032;28;20054;-67
2022/12/04 01:03:47;;;;;;;38.40;15.50;;;-0.40;99.90;;;;;;5097903;28;20081;-67
2022/12/04 01:06:29;;;;;;;36.13;14.38;;;-0.40;99.90;;;;;;5080213;28;20021;-67
2022/12/04 01:08:58;;;;;;;42.55;15.43;;;-0.40;99.90;;;;;;5079965;28;20030;-67
2022/12/04 01:11:27;;;;;;;36.03;13.40;;;-0.40;99.90;;;;;;5097708;28;20047;-67
2022/12/04 01:13:56;;;;;;;38.47;15.02;;;-0.40;99.90;;;;;;5098214;28;20099;-67
2022/12/04 01:16:26;;;;;;;38.38;13.98;;;-0.40;99.90;;;;;;5097657;28;20460;-67
2022/12/04 01:18:55;;;;;;;36.10;13.68;;;-0.40;99.90;;;;;;5097761;28;20051;-67
2022/12/04 01:21:22;;;;;;;29.23;13.52;;;-0.40;99.90;;;;;;5097800;28;20032;-67
2022/12/04 01:23:50;;;;;;;38.42;14.45;;;-0.40;99.90;;;;;;5097511;28;20027;-67
2022/12/04 01:26:18;;;;;;;36.97;14.27;;;-0.30;99.90;;;;;;5097406;28;20055;-67
2022/12/04 01:28:46;;;;;;;30.98;12.32;;;-0.40;99.90;;;;;;5097570;28;20016;-67
2022/12/04 01:31:16;;;;;;;35.95;13.63;;;-0.40;99.90;;;;;;5097685;28;20293;-67
2022/12/04 01:33:44;;;;;;;37.60;13.95;;;-0.40;99.90;;;;;;5097313;28;20027;-67
2022/12/04 01:36:15;;;;;;;32.97;13.35;;;-0.40;99.90;;;;;;5079192;28;20203;-67
2022/12/04 01:38:43;;;;;;;43.13;14.18;;;-0.40;99.90;;;;;;5097248;28;20419;-67
2022/12/04 01:41:12;;;;;;;37.40;13.43;;;-0.40;99.90;;;;;;5097659;28;20099;-67
2022/12/04 01:43:40;;;;;;;36.40;13.40;;;-0.40;99.90;;;;;;5097114;28;20016;-67
2022/12/04 01:46:07;;;;;;;40.58;17.30;;;-0.40;99.90;;;;;;5097692;28;20016;-67
2022/12/04 01:48:52;;;;;;;29.90;11.93;;;-0.40;99.90;;;;;;5097068;28;20044;-67
2022/12/04 01:51:28;;;;;;;37.70;15.10;;;-0.40;99.90;;;;;;5097132;28;20024;-67
2022/12/04 01:54:01;;;;;;;41.53;14.73;;;-0.30;99.90;;;;;;5097216;28;20024;-67
2022/12/04 01:56:43;;;;;;;37.85;13.73;;;-0.30;99.90;;;;;;5097226;28;20020;-67
2022/12/04 01:59:12;;;;;;;35.83;13.82;;;-0.30;99.90;;;;;;5096895;28;20031;-67
2022/12/04 02:02:06;;;;;;;40.08;13.27;;;-0.30;99.90;;;;;;5096676;28;20040;-67
2022/12/04 02:04:35;;;;;;;39.60;13.45;;;-0.30;99.90;;;;;;5097227;28;20054;-67
2022/12/04 02:07:04;;;;;;;35.63;14.13;;;-0.30;99.90;;;;;;5096762;28;20016;-67
2022/12/04 02:09:32;;;;;;;40.38;14.15;;;-0.30;99.90;;;;;;5079507;28;20028;-67
2022/12/04 02:12:11;;;;;;;42.03;15.25;;;-0.30;99.90;;;;;;5096753;28;20023;-67
2022/12/04 02:15:03;;;;;;;38.88;13.85;;;-0.30;99.90;;;;;;5096922;28;20400;-67
2022/12/04 02:17:48;;;;;;;45.67;14.10;;;-0.30;99.90;;;;;;5078786;28;20028;-67
2022/12/04 02:20:29;;;;;;;34.22;13.23;;;-0.30;99.90;;;;;;5078598;28;20028;-67
2022/12/04 02:23:17;;;;;;;43.80;14.98;;;-0.30;99.90;;;;;;5097201;28;20106;-67
2022/12/04 02:26:12;;;;;;;46.28;15.77;;;-0.30;99.90;;;;;;5097300;28;20024;-67
2022/12/04 02:29:09;;;;;;;38.83;15.43;;;-0.30;99.90;;;;;;5079194;28;20476;-67
2022/12/04 02:32:07;;;;;;;46.53;15.45;;;-0.30;99.90;;;;;;5085964;28;20040;-67
2022/12/04 02:35:04;;;;;;;45.33;15.00;;;-0.30;99.90;;;;;;5101357;28;20158;-67
2022/12/04 02:37:37;;;;;;;44.55;13.60;;;-0.30;99.90;;;;;;5100986;28;20025;-67
2022/12/04 02:40:27;;;;;;;41.15;14.43;;;-0.30;99.90;;;;;;5101143;28;20024;-67
2022/12/04 02:42:59;;;;;;;39.70;14.55;;;-0.30;99.90;;;;;;5100586;28;20095;-67
2022/12/04 02:45:33;;;;;;;46.50;14.90;;;-0.30;99.90;;;;;;5101266;28;20099;-67
2022/12/04 02:48:04;;;;;;;41.95;14.15;;;-0.30;99.90;;;;;;5101036;28;20281;-67
2022/12/04 02:50:36;;;;;;;43.63;14.88;;;-0.30;99.90;;;;;;5100940;28;20016;-67
2022/12/04 02:53:23;;;;;;;39.78;14.70;;;-0.30;99.90;;;;;;5100389;28;20073;-67
2022/12/04 02:56:03;;;;;;;44.22;15.68;;;-0.30;99.90;;;;;;5082287;28;20027;-67
2022/12/04 02:58:41;;;;;;;42.88;14.93;;;-0.30;99.90;;;;;;5100222;28;20032;-67
2022/12/04 03:01:20;;;;;;;37.65;13.68;;;-0.30;99.90;;;;;;5095543;28;20032;-67
2022/12/04 03:04:00;;;;;;;43.35;14.15;;;-0.30;99.90;;;;;;5080411;28;20123;-67
2022/12/04 03:06:33;;;;;;;50.15;15.57;;;-0.30;99.90;;;;;;5080308;28;20407;-67
2022/12/04 03:09:09;;;;;;;47.53;15.45;;;-0.30;99.90;;;;;;5079924;28;20017;-67
2022/12/04 03:11:39;;;;;;;39.45;12.07;;;-0.30;99.90;;;;;;5079734;28;20094;-67
2022/12/04 03:14:24;;;;;;;54.03;14.75;;;-0.30;99.90;;;;;;5079696;28;20024;-67
2022/12/04 03:16:57;;;;;;;36.83;13.18;;;-0.30;99.90;;;;;;5079591;28;20421;-67
2022/12/04 03:19:29;;;;;;;47.25;13.25;;;-0.30;99.90;;;;;;5061907;28;20095;-67
2022/12/04 03:22:06;;;;;;;41.63;12.45;;;-0.30;99.90;;;;;;5080082;28;20094;-67
2022/12/04 03:24:34;;;;;;;46.00;13.60;;;-0.30;99.90;;;;;;5079512;28;20017;-67
2022/12/04 03:27:13;;;;;;;54.15;14.70;;;-0.30;99.90;;;;;;5061711;28;20329;-67
2022/12/04 03:30:05;;;;;;;32.20;12.43;;;-0.30;99.90;;;;;;5079839;28;20033;-67
2022/12/04 03:32:39;;;;;;;37.05;14.05;;;-0.30;99.90;;;;;;5079926;28;20017;-67
2022/12/04 03:35:29;;;;;;;33.38;13.65;;;-0.30;99.90;;;;;;5079318;28;20021;-67
2022/12/04 03:38:29;;;;;;;35.15;11.98;;;-0.30;99.90;;;;;;5079537;28;20099;-67
2022/12/04 03:41:14;;;;;;;35.03;11.88;;;-0.30;99.90;;;;;;5071548;28;20111;-67
2022/12/04 03:44:03;;;;;;;47.88;14.05;;;-0.30;99.90;;;;;;5078598;28;20071;-67
2022/12/04 03:46:40;;;;;;;38.00;13.18;;;-0.20;99.90;;;;;;5079394;28;20017;-67
2022/12/04 03:49:39;;;;;;;31.60;11.95;;;-0.20;99.90;;;;;;5079786;28;20104;-67
2022/12/04 03:52:39;;;;;;;26.92;11.40;;;-0.20;99.90;;;;;;5079001;28;20428;-67
2022/12/04 03:55:28;;;;;;;27.08;10.40;;;-0.20;99.90;;;;;;5069879;28;20036;-67
2022/12/04 03:58:03;;;;;;;28.50;11.15;;;-0.20;99.90;;;;;;5078919;28;20078;-67
2022/12/04 04:00:32;;;;;;;34.80;11.98;;;-0.20;99.90;;;;;;5078955;28;20017;-67
2022/12/04 04:03:11;;;;;;;32.88;11.65;;;-0.20;99.90;;;;;;5097841;28;20048;-67
2022/12/04 04:05:46;;;;;;;36.33;12.25;;;-0.20;99.90;;;;;;5099822;28;20024;-67
2022/12/04 04:08:26;;;;;;;29.38;11.77;;;-0.20;99.90;;;;;;5098939;28;20020;-67
2022/12/04 04:11:08;;;;;;;38.20;13.30;;;-0.20;99.90;;;;;;5099682;28;20396;-67
2022/12/04 04:25:39;;;;;;;27.45;11.23;;;-0.20;99.90;;;;;;5100044;28;20032;-67
2022/12/04 04:28:26;;;;;;;31.27;10.80;;;-0.20;99.90;;;;;;5098497;28;20396;-67
2022/12/04 04:30:58;;;;;;;27.95;10.18;;;-0.10;99.90;;;;;;5099301;28;20079;-67
2022/12/04 04:33:27;;;;;;;29.15;10.30;;;-0.10;99.90;;;;;;5099028;28;20040;-67
2022/12/04 04:36:10;;;;;;;23.27;9.57;;;-0.10;99.90;;;;;;5098405;28;20024;-67
2022/12/04 04:38:53;;;;;;;28.10;10.30;;;-0.10;99.90;;;;;;5098403;28;20048;-67
2022/12/04 04:41:39;;;;;;;30.80;10.25;;;-0.10;99.90;;;;;;5098801;28;20109;-67
2022/12/04 04:44:41;;;;;;;20.42;9.05;;;-0.10;99.90;;;;;;5080478;28;20020;-67
2022/12/04 04:47:20;;;;;;;29.23;9.80;;;-0.10;99.90;;;;;;5098161;28;20020;-67
2022/12/04 04:49:50;;;;;;;26.23;10.63;;;-0.10;99.90;;;;;;5098633;28;20032;-67
2022/12/04 04:52:21;;;;;;;26.90;9.45;;;-0.10;99.90;;;;;;5098105;28;20031;-67
2022/12/04 04:54:48;;;;;;;32.85;10.63;;;-0.10;99.90;;;;;;5097923;28;20031;-67
2022/12/04 04:57:29;;;;;;;27.50;11.05;;;-0.10;99.90;;;;;;5098560;28;20109;-67
2022/12/04 04:59:57;;;;;;;26.50;10.15;;;-0.10;99.90;;;;;;5098487;28;20030;-67
2022/12/04 05:02:26;;;;;;;30.65;11.45;;;-0.10;99.90;;;;;;5097835;28;20040;-67
2022/12/04 05:04:54;;;;;;;23.55;9.95;;;-0.10;99.90;;;;;;5098528;28;20019;-67
2022/12/04 05:07:21;;;;;;;25.63;10.35;;;-0.10;99.90;;;;;;5097855;28;20375;-67
2022/12/04 05:09:49;;;;;;;36.13;11.05;;;-0.10;99.90;;;;;;5079796;28;20370;-67
2022/12/04 05:12:16;;;;;;;28.88;11.10;;;-0.10;99.90;;;;;;5097736;28;20115;-67
2022/12/04 05:14:46;;;;;;;29.38;9.73;;;-0.10;99.90;;;;;;5097912;28;20301;-67
2022/12/04 05:17:13;;;;;;;26.35;11.40;;;-0.10;99.90;;;;;;5097643;28;20185;-67
2022/12/04 05:19:53;;;;;;;22.77;9.85;;;-0.10;99.90;;;;;;5079464;28;20063;-67
2022/12/04 05:22:35;;;;;;;30.45;10.80;;;-0.10;99.90;;;;;;5098433;28;20016;-67
2022/12/04 05:25:03;;;;;;;28.73;11.13;;;-0.10;99.90;;;;;;5097705;28;20150;-67
2022/12/04 05:27:31;;;;;;;27.65;10.32;;;-0.10;99.90;;;;;;5097457;28;20039;-67
2022/12/04 05:29:59;;;;;;;26.65;10.70;;;-0.10;99.90;;;;;;5098002;28;20028;-67
2022/12/04 05:32:28;;;;;;;32.90;10.55;;;-0.10;99.90;;;;;;5097351;28;20031;-67
2022/12/04 05:34:56;;;;;;;28.45;11.82;;;-0.10;99.90;;;;;;5098015;28;20070;-67
2022/12/04 05:37:24;;;;;;;23.73;9.45;;;-0.10;99.90;;;;;;5097842;28;20342;-67
2022/12/04 05:39:52;;;;;;;29.00;10.57;;;-0.10;99.90;;;;;;5097496;28;20093;-67
2022/12/04 05:42:20;;;;;;;28.23;11.07;;;0.00;99.90;;;;;;5097163;28;20434;-67
2022/12/04 05:44:48;;;;;;;26.88;10.23;;;0.00;99.90;;;;;;5097920;28;20020;-67
2022/12/04 05:47:16;;;;;;;33.17;9.85;;;0.00;99.90;;;;;;5096984;28;20414;-67
2022/12/04 05:49:43;;;;;;;24.85;11.13;;;0.00;99.90;;;;;;5097518;28;20020;-67
2022/12/04 05:52:11;;;;;;;25.10;11.05;;;0.00;99.90;;;;;;5097562;28;20145;-67
2022/12/04 05:54:39;;;;;;;27.42;10.15;;;0.00;99.90;;;;;;5097707;28;20081;-67
2022/12/04 05:57:06;;;;;;;26.85;10.70;;;0.00;99.90;;;;;;5079578;28;20060;-67
2022/12/04 05:59:34;;;;;;;29.48;10.65;;;0.00;99.90;;;;;;5078958;28;20020;-67
2022/12/04 06:02:01;;;;;;;32.13;11.02;;;0.00;99.90;;;;;;5075674;28;20032;-67
2022/12/04 06:04:29;;;;;;;32.97;12.52;;;0.00;99.90;;;;;;5077285;28;20103;-67
2022/12/04 06:06:56;;;;;;;31.02;11.57;;;0.00;99.90;;;;;;5076167;28;20376;-67
2022/12/04 06:09:24;;;;;;;31.77;12.05;;;0.00;99.90;;;;;;5076571;28;20040;-67
2022/12/04 06:11:51;;;;;;;37.03;12.02;;;0.00;99.90;;;;;;5076544;28;20025;-67
2022/12/04 06:14:19;;;;;;;32.88;12.07;;;0.00;99.90;;;;;;5076689;28;20024;-67
2022/12/04 06:16:46;;;;;;;32.10;11.13;;;0.00;99.90;;;;;;5075575;28;20111;-67
2022/12/04 06:19:18;;;;;;;32.90;11.30;;;0.00;99.90;;;;;;5075460;28;20029;-67
2022/12/04 06:21:48;;;;;;;31.70;11.13;;;0.00;99.90;;;;;;5076420;28;20033;-67
2022/12/04 06:24:22;;;;;;;30.63;12.63;;;0.00;99.90;;;;;;5077168;28;20016;-67
2022/12/04 06:26:50;;;;;;;32.10;11.27;;;0.00;99.90;;;;;;5076432;28;20027;-67
2022/12/04 06:29:18;;;;;;;31.67;12.38;;;0.00;99.90;;;;;;5075378;28;20048;-67
2022/12/04 06:31:45;;;;;;;37.35;12.68;;;0.00;99.90;;;;;;5076970;28;20048;-67
2022/12/04 06:34:12;;;;;;;34.05;12.48;;;0.00;99.90;;;;;;5077067;28;20401;-67
2022/12/04 06:36:40;;;;;;;28.25;10.90;;;0.00;99.90;;;;;;5076804;28;20103;-67
2022/12/04 06:39:08;;;;;;;31.90;13.00;;;0.00;99.90;;;;;;5076578;28;20290;-67
2022/12/04 06:41:35;;;;;;;28.67;12.38;;;0.00;99.90;;;;;;5076167;28;20035;-67
2022/12/04 06:44:02;;;;;;;30.73;10.40;;;0.00;99.90;;;;;;5076787;28;20021;-67
2022/12/04 06:46:32;;;;;;;31.77;11.13;;;0.00;99.90;;;;;;5075516;28;20456;-67
2022/12/04 06:49:00;;;;;;;31.02;12.23;;;0.00;99.90;;;;;;5076938;28;20048;-67
2022/12/04 06:51:33;;;;;;;33.97;12.27;;;0.00;99.90;;;;;;5076105;28;20032;-68
2022/12/04 06:54:01;;;;;;;32.67;11.77;;;0.00;99.90;;;;;;5076740;28;20046;-67
2022/12/04 06:56:30;;;;;;;33.45;12.70;;;0.10;99.90;;;;;;5076131;28;20024;-67
2022/12/04 06:59:00;;;;;;;33.53;14.10;;;0.10;99.90;;;;;;5076588;28;20313;-67
2022/12/04 07:01:29;;;;;;;34.67;11.73;;;0.10;99.90;;;;;;5074801;28;20359;-67
2022/12/04 07:03:58;;;;;;;35.08;12.70;;;0.00;99.90;;;;;;5076633;28;20047;-67
2022/12/04 07:06:36;;;;;;;33.97;13.02;;;0.10;99.90;;;;;;5075977;28;20025;-67
2022/12/04 07:09:05;;;;;;;37.85;13.57;;;0.10;99.90;;;;;;5076741;28;20099;-67
2022/12/04 07:11:35;;;;;;;45.35;15.88;;;0.10;99.90;;;;;;5076121;28;20052;-67
2022/12/04 07:14:03;;;;;;;37.88;13.45;;;0.10;99.90;;;;;;5076561;28;20047;-67
2022/12/04 07:16:31;;;;;;;38.95;15.63;;;0.10;99.90;;;;;;5076457;28;20104;-67
2022/12/04 07:18:59;;;;;;;33.47;11.90;;;0.10;99.90;;;;;;5077800;28;20103;-67
2022/12/04 07:21:28;;;;;;;33.92;13.60;;;0.10;99.90;;;;;;5079475;28;20021;-67
2022/12/04 07:24:01;;;;;;;37.03;13.77;;;0.10;99.90;;;;;;5079579;28;20405;-67
2022/12/04 07:26:29;;;;;;;36.10;13.80;;;0.10;99.90;;;;;;5079544;28;20020;-67
2022/12/04 07:28:59;;;;;;;34.95;14.38;;;0.10;99.90;;;;;;5079910;28;20360;-67
2022/12/04 07:31:28;;;;;;;36.88;16.38;;;0.10;99.90;;;;;;5079444;28;20020;-67
2022/12/04 07:33:56;;;;;;;40.17;14.90;;;0.10;99.90;;;;;;5079421;28;20412;-68
2022/12/04 07:36:24;;;;;;;39.90;15.80;;;0.10;99.90;;;;;;5079282;28;20078;-67
2022/12/04 07:38:53;;;;;;;39.20;14.50;;;0.10;99.90;;;;;;5079456;28;20079;-68
2022/12/04 07:41:21;;;;;;;43.53;16.73;;;0.10;99.90;;;;;;5078037;28;20115;-67
2022/12/04 07:43:49;;;;;;;41.67;14.88;;;0.20;99.90;;;;;;5079783;28;20021;-68
2022/12/04 07:46:26;;;;;;;35.65;13.77;;;0.10;99.90;;;;;;5079266;28;20059;-69
2022/12/04 07:48:57;;;;;;;43.05;15.93;;;0.20;99.90;;;;;;5079805;28;20017;-69
2022/12/04 07:51:28;;;;;;;41.40;14.82;;;0.20;99.90;;;;;;5078997;28;20020;-69
2022/12/04 07:53:59;;;;;;;42.95;17.58;;;0.20;99.90;;;;;;5078861;28;20027;-69
2022/12/04 07:56:27;;;;;;;46.20;16.58;;;0.20;99.90;;;;;;5077865;28;20420;-69
2022/12/04 07:58:54;;;;;;;41.42;15.00;;;0.20;99.90;;;;;;5078874;28;20029;-74
2022/12/04 08:01:23;;;;;;;47.88;17.45;;;0.20;99.90;;;;;;5083624;28;20048;-73
2022/12/04 08:03:54;;;;;;;41.20;16.60;;;0.20;99.90;;;;;;5099048;28;20028;-74
2022/12/04 08:06:23;;;;;;;50.78;16.40;;;0.20;99.90;;;;;;5080955;28;20036;-74
2022/12/04 08:08:52;;;;;;;44.50;16.35;;;0.20;99.90;;;;;;5099313;28;20046;-74
2022/12/04 08:11:22;;;;;;;44.70;17.75;;;0.30;99.90;;;;;;5098921;28;20028;-71
2022/12/04 08:13:55;;;;;;;54.95;18.83;;;0.20;99.90;;;;;;5099594;28;20063;-71
2022/12/04 08:16:24;;;;;;;43.35;16.08;;;0.20;99.90;;;;;;5080813;28;20030;-72
2022/12/04 08:18:53;;;;;;;51.70;19.13;;;0.20;99.90;;;;;;5099036;28;20355;-72
2022/12/04 08:21:23;;;;;;;54.63;19.63;;;0.30;99.90;;;;;;5099100;28;20020;-72
2022/12/04 08:23:55;;;;;;;54.17;18.98;;;0.30;99.90;;;;;;5080872;28;20024;-75
2022/12/04 08:26:24;;;;;;;45.50;16.88;;;0.30;99.90;;;;;;5098886;28;20017;-76
2022/12/04 08:28:56;;;;;;;47.83;17.50;;;0.30;99.90;;;;;;5098632;28;20024;-75
2022/12/04 08:31:26;;;;;;;43.78;18.70;;;0.30;99.90;;;;;;5097737;28;20121;-76
2022/12/04 08:33:55;;;;;;;40.60;16.90;;;0.30;99.90;;;;;;5098971;28;20076;-75
2022/12/04 08:36:24;;;;;;;51.75;18.92;;;0.30;99.90;;;;;;5098387;28;20316;-79
2022/12/04 08:38:52;;;;;;;53.63;19.65;;;0.30;99.90;;;;;;5098408;28;20020;-77
2022/12/04 08:41:22;;;;;;;54.83;18.90;;;0.30;99.90;;;;;;5098523;28;20028;-74
2022/12/04 08:43:50;;;;;;;51.53;19.77;;;0.40;99.90;;;;;;5098477;28;20048;-77
2022/12/04 08:46:18;;;;;;;47.65;18.08;;;0.40;99.90;;;;;;5080327;28;20020;-77
2022/12/04 08:48:47;;;;;;;47.42;18.42;;;0.40;99.90;;;;;;5080221;28;20137;-75
2022/12/04 08:51:29;;;;;;;54.08;21.77;;;0.40;99.90;;;;;;5098626;28;20414;-76
2022/12/04 08:54:00;;;;;;;49.70;19.25;;;0.40;99.90;;;;;;5098299;28;20032;-72
2022/12/04 08:56:28;;;;;;;54.38;19.98;;;0.40;99.90;;;;;;5098055;28;20028;-73
2022/12/04 08:58:57;;;;;;;52.78;20.58;;;0.40;99.90;;;;;;5097972;28;20024;-72
2022/12/04 09:01:25;;;;;;;47.38;18.98;;;0.40;99.90;;;;;;5097682;28;20067;-72
2022/12/04 09:03:53;;;;;;;48.33;17.83;;;0.50;99.90;;;;;;5097988;28;20028;-72
2022/12/04 09:06:21;;;;;;;56.60;20.90;;;0.50;99.90;;;;;;5079836;28;20023;-70
2022/12/04 09:08:53;;;;;;;55.55;20.27;;;0.50;99.90;;;;;;5098108;28;20462;-76
2022/12/04 09:11:24;;;;;;;48.00;18.25;;;0.50;99.90;;;;;;5079930;28;20028;-69
2022/12/04 09:13:52;;;;;;;56.72;20.38;;;0.50;99.90;;;;;;5098296;28;20065;-71
2022/12/04 09:16:21;;;;;;;51.33;20.50;;;0.50;99.90;;;;;;5097796;28;20020;-72
2022/12/04 09:18:49;;;;;;;46.92;18.67;;;0.50;99.90;;;;;;5097665;28;20076;-69
2022/12/04 09:21:19;;;;;;;49.40;19.50;;;0.50;99.90;;;;;;5097656;28;20016;-71
2022/12/04 09:23:46;;;;;;;47.38;19.88;;;0.50;99.90;;;;;;5097548;28;20482;-71
2022/12/04 09:26:20;;;;;;;53.25;19.27;;;0.60;99.90;;;;;;5098006;28;20024;-70
2022/12/04 09:28:48;;;;;;;45.55;18.10;;;0.60;99.90;;;;;;5098110;28;20024;-75
2022/12/04 09:31:16;;;;;;;54.78;20.30;;;0.50;99.90;;;;;;5097680;28;20023;-70
2022/12/04 09:33:44;;;;;;;52.00;19.70;;;0.60;99.90;;;;;;5097400;28;20432;-71
2022/12/04 09:36:15;;;;;;;52.25;17.90;;;0.60;99.90;;;;;;5097453;28;20028;-70
2022/12/04 09:38:44;;;;;;;56.65;21.60;;;0.60;99.90;;;;;;5097470;28;20081;-70
2022/12/04 09:41:36;;;;;;;50.15;19.95;;;0.60;99.90;;;;;;5097107;28;20036;-72
2022/12/04 09:44:09;;;;;;;45.88;18.58;;;0.60;99.90;;;;;;5079235;28;20030;-74
2022/12/04 09:46:41;;;;;;;45.22;18.60;;;0.60;99.90;;;;;;5097439;28;20042;-77
2022/12/04 09:49:30;;;;;;;49.28;19.73;;;0.60;99.90;;;;;;5097274;28;20059;-74
2022/12/04 09:52:02;;;;;;;49.83;18.17;;;0.60;99.90;;;;;;5073849;28;20027;-77
2022/12/04 09:54:37;;;;;;;52.45;20.58;;;0.70;99.90;;;;;;5097062;28;20026;-74
2022/12/04 09:57:36;;;;;;;49.88;19.38;;;0.70;99.90;;;;;;5096989;28;20021;-71
2022/12/04 10:00:06;;;;;;;50.75;19.23;;;0.70;99.90;;;;;;5097087;28;20024;-70
2022/12/04 10:02:37;;;;;;;49.40;18.90;;;0.70;99.90;;;;;;5096738;28;20102;-70
2022/12/04 10:05:15;;;;;;;56.60;21.17;;;0.60;99.90;;;;;;5097291;28;20069;-71
2022/12/04 10:08:19;;;;;;;55.60;19.23;;;0.60;99.90;;;;;;5096788;28;20481;-72
2022/12/04 10:11:17;;;;;;;45.83;19.30;;;0.70;99.90;;;;;;5078650;28;20059;-72
2022/12/04 10:14:13;;;;;;;44.75;18.40;;;0.70;99.90;;;;;;5097203;28;20169;-72
2022/12/04 10:17:07;;;;;;;53.92;18.52;;;0.70;99.90;;;;;;5096980;28;20020;-72
2022/12/04 10:20:11;;;;;;;68.70;23.50;;;0.70;99.90;;;;;;5097022;28;20024;-72
2022/12/04 10:22:57;;;;;;;53.05;19.55;;;0.70;99.90;;;;;;5018083;28;20033;-72
2022/12/04 10:25:27;;;;;;;52.05;19.10;;;0.70;99.90;;;;;;5092888;28;20056;-72
2022/12/04 10:28:02;;;;;;;59.72;20.70;;;0.80;99.90;;;;;;5097151;28;20107;-72
2022/12/04 10:30:35;;;;;;;58.78;19.88;;;0.70;99.90;;;;;;5097427;28;20305;-72
2022/12/04 10:33:24;;;;;;;51.45;20.35;;;0.80;99.90;;;;;;5096538;28;20016;-70
2022/12/04 10:35:53;;;;;;;55.67;22.08;;;0.80;99.90;;;;;;5096489;28;20034;-72
2022/12/04 10:38:27;;;;;;;46.53;17.83;;;0.70;99.90;;;;;;5078697;28;20028;-72
2022/12/04 10:41:27;;;;;;;49.38;19.40;;;0.80;99.90;;;;;;5096699;28;20077;-70
2022/12/04 10:43:54;;;;;;;52.85;19.88;;;0.80;99.90;;;;;;5080018;28;20309;-70
2022/12/04 10:46:27;;;;;;;50.65;20.00;;;0.80;99.90;;;;;;5096484;28;20026;-83
2022/12/04 10:49:00;;;;;;;56.20;22.38;;;0.80;99.90;;;;;;5078555;28;20021;-71
2022/12/04 10:51:40;;;;;;;61.05;22.50;;;0.80;99.90;;;;;;5096337;28;20024;-88
2022/12/04 10:54:22;;;;;;;51.40;19.00;;;0.80;99.90;;;;;;5065564;28;20024;-71
2022/12/04 10:56:58;;;;;;;45.60;17.52;;;0.80;99.90;;;;;;5100421;28;20432;-71
2022/12/04 10:59:27;;;;;;;45.90;17.83;;;0.80;99.90;;;;;;5100405;28;20024;-71
2022/12/04 11:02:21;;;;;;;43.70;17.98;;;0.90;99.90;;;;;;5100178;28;20331;-71
2022/12/04 11:05:00;;;;;;;45.38;19.33;;;0.80;99.90;;;;;;5082022;28;20115;-71
2022/12/04 11:07:31;;;;;;;51.05;19.17;;;0.90;99.90;;;;;;5100774;28;20402;-71
2022/12/04 11:10:08;;;;;;;46.88;18.40;;;0.90;99.90;;;;;;5100072;28;20331;-71
2022/12/04 11:12:35;;;;;;;46.10;19.90;;;0.90;99.90;;;;;;5100642;28;20028;-70
2022/12/04 11:15:12;;;;;;;42.33;17.17;;;0.90;99.90;;;;;;5100240;28;20035;-71
2022/12/04 11:17:40;;;;;;;44.13;19.60;;;0.90;99.90;;;;;;5099990;28;20432;-73
2022/12/04 11:20:23;;;;;;;51.92;20.38;;;0.90;99.90;;;;;;5100296;28;20485;-72
2022/12/04 11:22:55;;;;;;;45.45;19.17;;;0.90;99.90;;;;;;5099910;28;20043;-71
2022/12/04 11:25:38;;;;;;;43.90;18.17;;;0.90;99.90;;;;;;5100384;28;20020;-68
2022/12/04 11:28:05;;;;;;;42.63;17.30;;;0.90;99.90;;;;;;5099859;28;20095;-72
2022/12/04 11:30:37;;;;;;;48.97;18.38;;;0.90;99.90;;;;;;5100328;28;20479;-73
2022/12/04 11:33:20;;;;;;;53.22;20.38;;;0.90;99.90;;;;;;5099905;28;20107;-73
2022/12/04 11:35:58;;;;;;;47.33;19.40;;;0.90;99.90;;;;;;5100138;28;20095;-72
2022/12/04 11:38:28;;;;;;;50.00;20.02;;;0.90;99.90;;;;;;5081619;28;20324;-70
2022/12/04 11:40:57;;;;;;;40.67;15.70;;;0.90;99.90;;;;;;5100042;28;20077;-69
2022/12/04 11:43:31;;;;;;;44.65;16.73;;;0.90;99.90;;;;;;5081508;28;20024;-70
2022/12/04 11:46:05;;;;;;;45.40;19.38;;;0.90;99.90;;;;;;5099637;28;20031;-72
2022/12/04 11:48:43;;;;;;;45.25;19.20;;;0.90;99.90;;;;;;5099385;28;20024;-73
2022/12/04 11:51:22;;;;;;;44.22;18.10;;;0.90;99.90;;;;;;5099706;28;20020;-72
2022/12/04 11:53:59;;;;;;;45.13;18.23;;;0.90;99.90;;;;;;5099339;28;20028;-72
2022/12/04 11:56:38;;;;;;;45.55;19.48;;;0.90;99.90;;;;;;5099265;28;20328;-73
2022/12/04 11:59:56;;;;;;;50.40;19.75;;;0.90;99.90;;;;;;5099898;28;20024;-72
2022/12/04 12:02:46;;;;;;;49.47;19.17;;;0.90;99.90;;;;;;5056108;28;20337;-73
2022/12/04 12:06:14;;;;;;;44.95;18.85;;;1.00;99.90;;;;;;5077824;28;20021;-72
2022/12/04 12:08:59;;;;;;;44.92;19.42;;;1.00;99.90;;;;;;5037458;28;20445;-72
2022/12/04 12:11:58;;;;;;;48.78;20.48;;;1.00;99.90;;;;;;5094521;28;20059;-71
2022/12/04 12:14:36;;;;;;;47.88;19.25;;;1.00;99.90;;;;;;5079530;28;20278;-71
2022/12/04 12:17:26;;;;;;;49.45;20.33;;;1.00;99.90;;;;;;5079172;28;20364;-72
2022/12/04 12:20:15;;;;;;;49.40;17.13;;;1.00;99.90;;;;;;5077491;28;20448;-74
2022/12/04 12:23:11;;;;;;;46.13;15.45;;;1.00;99.90;;;;;;5078753;28;20052;-73
2022/12/04 12:25:48;;;;;;;29.15;12.30;;;1.00;99.90;;;;;;5078778;28;20379;-73
2022/12/04 12:28:31;;;;;;;52.72;18.02;;;1.00;99.90;;;;;;5078881;28;20320;-73
2022/12/04 12:31:31;;;;;;;42.50;18.90;;;0.90;99.90;;;;;;5077258;28;20033;-73
2022/12/04 12:34:17;;;;;;;44.22;16.77;;;0.90;99.90;;;;;;5078901;28;20241;-73
2022/12/04 12:36:49;;;;;;;43.90;17.42;;;0.90;99.90;;;;;;5078157;28;20024;-73
2022/12/04 12:39:25;;;;;;;41.20;17.27;;;0.90;99.90;;;;;;5078372;28;20103;-72
2022/12/04 12:42:00;;;;;;;32.25;14.45;;;0.90;99.90;;;;;;5078645;28;20036;-73
2022/12/04 12:44:46;;;;;;;50.00;20.42;;;0.90;99.90;;;;;;5077071;28;20074;-73
2022/12/04 12:47:20;;;;;;;42.77;19.13;;;0.90;99.90;;;;;;5078314;28;20029;-72
2022/12/04 12:50:01;;;;;;;48.15;18.30;;;0.90;99.90;;;;;;5078108;28;20024;-72
2022/12/04 12:52:46;;;;;;;41.78;18.83;;;0.90;99.90;;;;;;5078448;28;20020;-72
2022/12/04 12:55:31;;;;;;;59.38;23.63;;;0.90;99.90;;;;;;5077845;28;20028;-73
2022/12/04 12:58:07;;;;;;;52.75;21.23;;;0.90;99.90;;;;;;5076737;28;20201;-71
2022/12/04 13:00:47;;;;;;;43.30;19.77;;;0.90;99.90;;;;;;5077718;28;20020;-73
2022/12/04 13:03:35;;;;;;;57.40;22.73;;;1.00;99.90;;;;;;5077250;28;20094;-73
2022/12/04 13:06:12;;;;;;;56.38;22.25;;;1.00;99.90;;;;;;5077770;28;20324;-74
2022/12/04 13:08:48;;;;;;;69.47;24.27;;;1.00;99.90;;;;;;5077881;28;20071;-74
2022/12/04 13:11:19;;;;;;;47.20;19.50;;;1.00;99.90;;;;;;5077524;28;20154;-73
2022/12/04 13:13:53;;;;;;;44.30;20.52;;;0.90;99.90;;;;;;5077699;28;20031;-73
2022/12/04 13:16:43;;;;;;;41.45;18.95;;;0.90;99.90;;;;;;5077129;28;20028;-72
2022/12/04 13:19:34;;;;;;;40.92;17.10;;;0.90;99.90;;;;;;5077392;28;20020;-73
2022/12/04 13:22:36;;;;;;;46.22;18.13;;;1.00;99.90;;;;;;5076218;28;20328;-74
2022/12/04 13:25:26;;;;;;;40.35;17.75;;;0.90;99.90;;;;;;5076383;28;20023;-72